createdAt,value
2022-09-06T00:02:06.002Z,65.69
2022-09-06T00:04:36.770Z,65.66
2022-09-06T00:07:07.722Z,65.86
2022-09-06T00:09:38.445Z,65.82
2022-09-06T00:12:09.669Z,65.99
2022-09-06T00:14:40.411Z,66.02
2022-09-06T00:17:11.264Z,66.12
2022-09-06T00:19:41.947Z,66.12
2022-09-06T00:22:12.623Z,66.29
2022-09-06T00:24:43.564Z,66.34
2022-09-06T00:27:14.313Z,66.50
2022-09-06T00:29:45.121Z,66.60
2022-09-06T00:32:16.029Z,66.74
2022-09-06T00:34:46.742Z,66.70
2022-09-06T00:37:17.492Z,66.75
2022-09-06T00:39:48.277Z,66.73
2022-09-06T00:42:19.085Z,66.76
2022-09-06T00:44:51.043Z,66.78
2022-09-06T00:47:22.122Z,66.92
2022-09-06T00:49:56.114Z,66.79
2022-09-06T00:52:28.735Z,66.85
2022-09-06T00:54:59.913Z,66.83
2022-09-06T00:57:32.278Z,67.03
2022-09-06T01:00:05.361Z,67.08
2022-09-06T01:02:36.312Z,66.91
2022-09-06T01:05:09.242Z,66.97
2022-09-06T01:08:03.762Z,66.98
2022-09-06T01:10:57.123Z,66.83
2022-09-06T01:13:38.631Z,66.83
2022-09-06T01:16:17.311Z,66.87
2022-09-06T01:19:15.427Z,66.84
2022-09-06T01:21:55.595Z,66.86
2022-09-06T01:24:44.524Z,66.85
2022-09-06T01:27:45.158Z,66.88
2022-09-06T01:30:19.647Z,66.77
2022-09-06T01:32:57.299Z,66.66
2022-09-06T01:35:35.205Z,66.77
2022-09-06T01:38:07.552Z,66.85
2022-09-06T01:40:38.243Z,66.82
2022-09-06T01:43:12.913Z,67.08
2022-09-06T01:45:55.355Z,67.11
2022-09-06T01:48:38.550Z,67.28
2022-09-06T01:51:19.295Z,67.26
2022-09-06T01:54:17.676Z,67.19
2022-09-06T01:57:00.524Z,67.20
2022-09-06T01:59:45.047Z,67.26
2022-09-06T02:02:21.453Z,67.21
2022-09-06T02:04:58.432Z,67.12
2022-09-06T02:07:32.219Z,67.04
2022-09-06T02:10:08.903Z,67.08
2022-09-06T02:12:42.957Z,67.09
2022-09-06T02:15:16.175Z,67.23
2022-09-06T02:17:54.812Z,67.43
2022-09-06T02:20:32.046Z,67.55
2022-09-06T02:23:06.879Z,67.39
2022-09-06T02:25:40.783Z,67.40
2022-09-06T02:28:12.178Z,67.08
2022-09-06T02:30:47.402Z,67.30
2022-09-06T02:33:21.900Z,67.41
2022-09-06T02:35:55.186Z,67.71
2022-09-06T02:38:28.008Z,67.92
2022-09-06T02:40:59.565Z,68.02
2022-09-06T02:43:30.512Z,68.07
2022-09-06T02:46:01.305Z,68.07
2022-09-06T02:48:32.064Z,68.08
2022-09-06T02:51:06.826Z,68.24
2022-09-06T02:53:38.573Z,68.28
2022-09-06T02:56:09.554Z,68.19
2022-09-06T02:58:40.238Z,68.09
2022-09-06T03:01:11.128Z,68.09
2022-09-06T03:03:42.439Z,68.15
2022-09-06T03:06:13.204Z,68.18
2022-09-06T03:08:43.927Z,68.14
2022-09-06T03:11:14.979Z,68.08
2022-09-06T03:13:45.699Z,67.91
2022-09-06T03:16:16.415Z,67.72
2022-09-06T03:18:47.496Z,67.61
2022-09-06T03:21:18.183Z,67.69
2022-09-06T03:23:49.650Z,67.72
2022-09-06T03:26:20.408Z,67.80
2022-09-06T03:28:51.558Z,67.78
2022-09-06T03:31:22.425Z,67.99
2022-09-06T03:33:53.146Z,68.23
2022-09-06T03:36:23.776Z,68.24
2022-09-06T03:38:55.079Z,68.30
2022-09-06T03:41:25.979Z,68.41
2022-09-06T03:43:56.813Z,68.47
2022-09-06T03:46:30.503Z,68.54
2022-09-06T03:49:02.079Z,68.47
2022-09-06T03:51:32.795Z,68.58
2022-09-06T03:54:03.917Z,68.50
2022-09-06T03:56:34.683Z,68.69
2022-09-06T03:59:05.743Z,68.77
2022-09-06T04:01:36.536Z,68.72
2022-09-06T04:04:07.367Z,68.82
2022-09-06T04:06:38.117Z,68.79
2022-09-06T04:09:08.931Z,68.76
2022-09-06T04:11:39.612Z,68.68
2022-09-06T04:14:10.522Z,68.57
2022-09-06T04:16:41.380Z,68.51
2022-09-06T04:19:12.155Z,68.56
2022-09-06T04:21:42.851Z,68.65
2022-09-06T04:24:13.549Z,68.69
2022-09-06T04:26:44.286Z,68.73
2022-09-06T04:29:15.038Z,68.70
2022-09-06T04:31:45.961Z,68.67
2022-09-06T04:34:17.661Z,68.69
2022-09-06T04:36:48.648Z,68.80
2022-09-06T04:39:19.372Z,68.86
2022-09-06T04:41:50.089Z,68.80
2022-09-06T04:44:20.988Z,68.80
2022-09-06T04:46:51.723Z,68.83
2022-09-06T04:49:23.744Z,68.84
2022-09-06T04:51:54.451Z,68.92
2022-09-06T04:54:25.139Z,68.79
2022-09-06T04:56:55.832Z,68.92
2022-09-06T04:59:26.614Z,68.86
2022-09-06T05:01:57.351Z,68.86
2022-09-06T05:04:28.518Z,68.78
2022-09-06T05:07:05.014Z,68.73
2022-09-06T05:09:36.892Z,68.78
2022-09-06T05:12:08.528Z,68.85
2022-09-06T05:14:39.292Z,68.71
2022-09-06T05:17:09.994Z,68.63
2022-09-06T05:19:40.803Z,68.80
2022-09-06T05:22:11.957Z,68.90
2022-09-06T05:24:42.758Z,68.90
2022-09-06T05:27:14.386Z,68.90
2022-09-06T05:29:45.232Z,68.80
2022-09-06T05:32:21.689Z,68.54
2022-09-06T05:34:52.533Z,68.40
2022-09-06T05:37:23.403Z,68.31
2022-09-06T05:39:54.241Z,68.15
2022-09-06T05:42:25.066Z,67.97
2022-09-06T05:44:55.870Z,67.86
2022-09-06T05:47:26.628Z,67.49
2022-09-06T05:49:58.023Z,67.05
2022-09-06T05:52:29.074Z,66.59
2022-09-06T05:54:59.838Z,66.05
2022-09-06T05:57:30.569Z,65.98
2022-09-06T06:00:01.560Z,65.45
2022-09-06T06:02:42.213Z,65.28
2022-09-06T06:05:13.239Z,64.92
2022-09-06T06:07:44.267Z,64.76
2022-09-06T06:10:14.971Z,64.40
2022-09-06T06:12:45.672Z,63.79
2022-09-06T06:15:16.594Z,63.80
2022-09-06T06:17:47.294Z,63.70
2022-09-06T06:20:18.054Z,63.39
2022-09-06T06:22:48.751Z,63.39
2022-09-06T06:25:23.144Z,63.27
2022-09-06T06:27:53.954Z,63.34
2022-09-06T06:30:24.747Z,63.27
2022-09-06T06:32:55.536Z,63.28
2022-09-06T06:35:26.435Z,63.21
2022-09-06T06:37:57.442Z,63.17
2022-09-06T06:40:28.104Z,63.02
2022-09-06T06:43:00.428Z,63.21
2022-09-06T06:45:31.646Z,63.60
2022-09-06T06:48:02.906Z,63.51
2022-09-06T06:50:33.641Z,63.73
2022-09-06T06:53:04.404Z,63.71
2022-09-06T06:55:35.572Z,63.62
2022-09-06T06:58:06.365Z,63.72
2022-09-06T07:00:37.168Z,64.00
2022-09-06T07:03:08.065Z,63.77
2022-09-06T07:08:30.011Z,63.32
2022-09-06T07:11:00.833Z,63.35
2022-09-06T07:13:33.894Z,63.31
2022-09-06T07:16:13.882Z,62.99
2022-09-06T07:18:45.926Z,63.15
2022-09-06T07:24:09.306Z,62.90
2022-09-06T07:26:41.859Z,62.57
2022-09-06T07:29:12.626Z,62.62
2022-09-06T07:34:37.721Z,61.65
2022-09-06T07:37:08.620Z,62.30
2022-09-06T07:39:39.925Z,62.11
2022-09-06T07:42:11.174Z,61.58
2022-09-06T07:44:41.906Z,60.95
2022-09-06T07:53:13.007Z,59.81
2022-09-06T07:55:45.090Z,59.70
2022-09-06T07:58:15.944Z,59.53
2022-09-06T08:00:46.807Z,59.68
2022-09-06T08:03:17.579Z,59.44
2022-09-06T08:11:31.729Z,59.55
2022-09-06T08:14:05.359Z,59.70
2022-09-06T08:16:38.139Z,59.69
2022-09-06T08:19:11.004Z,59.65
2022-09-06T08:21:42.319Z,59.66
2022-09-06T08:24:13.053Z,59.61
2022-09-06T08:26:43.933Z,59.68
2022-09-06T08:29:15.127Z,59.06
2022-09-06T08:31:46.892Z,59.13
2022-09-06T08:34:17.801Z,58.90
2022-09-06T08:36:48.533Z,59.03
2022-09-06T08:39:19.612Z,58.70
2022-09-06T08:41:55.750Z,58.44
2022-09-06T08:47:22.115Z,58.41
2022-09-06T08:49:56.279Z,58.27
2022-09-06T08:52:54.470Z,58.18
2022-09-06T08:55:42.971Z,57.56
2022-09-06T08:58:26.768Z,57.09
2022-09-06T09:01:04.728Z,55.79
2022-09-06T09:03:36.650Z,55.99
2022-09-06T09:06:10.210Z,56.43
2022-09-06T09:08:48.973Z,55.96
2022-09-06T09:11:22.479Z,55.22
2022-09-06T09:13:59.944Z,54.84
2022-09-06T09:16:30.766Z,54.89
2022-09-06T09:19:04.110Z,54.66
2022-09-06T09:21:38.232Z,54.83
2022-09-06T09:24:11.285Z,54.44
2022-09-06T09:26:51.100Z,54.02
2022-09-06T09:29:27.463Z,53.61
2022-09-06T09:31:59.863Z,53.43
2022-09-06T09:34:35.860Z,53.37
2022-09-06T09:40:19.906Z,53.34
2022-09-06T09:42:51.565Z,53.27
2022-09-06T09:45:29.299Z,53.33
2022-09-06T09:48:16.691Z,53.58
2022-09-06T09:50:47.470Z,53.88
2022-09-06T09:53:21.011Z,54.07
2022-09-06T09:55:56.324Z,53.93
2022-09-06T09:58:34.839Z,54.06
2022-09-06T10:01:24.012Z,54.01
2022-09-06T10:07:10.635Z,53.64
2022-09-06T10:09:43.935Z,53.50
2022-09-06T10:12:19.837Z,53.32
2022-09-06T10:14:51.271Z,52.77
2022-09-06T10:17:30.809Z,52.68
2022-09-06T10:20:05.176Z,52.37
2022-09-06T10:22:44.992Z,52.26
2022-09-06T10:25:31.114Z,52.17
2022-09-06T10:28:31.620Z,52.01
2022-09-06T10:31:47.600Z,51.94
2022-09-06T10:34:42.825Z,51.95
2022-09-06T10:37:26.410Z,51.89
2022-09-06T10:40:05.093Z,51.69
2022-09-06T10:42:44.123Z,51.84
2022-09-06T10:45:37.282Z,51.81
2022-09-06T10:48:15.032Z,51.83
2022-09-06T10:50:51.548Z,51.63
2022-09-06T10:53:37.800Z,51.49
2022-09-06T10:56:12.163Z,51.86
2022-09-06T11:01:44.100Z,51.90
2022-09-06T11:04:24.311Z,51.80
2022-09-06T11:07:01.605Z,51.30
2022-09-06T11:09:36.790Z,50.78
2022-09-06T11:12:13.516Z,50.38
2022-09-06T11:14:44.294Z,49.88
2022-09-06T11:17:23.150Z,49.74
2022-09-06T11:20:03.576Z,48.90
2022-09-06T11:22:58.019Z,48.85
2022-09-06T11:25:59.353Z,48.20
2022-09-06T11:28:36.557Z,47.82
2022-09-06T11:34:20.195Z,47.61
2022-09-06T11:36:52.902Z,47.71
2022-09-06T11:43:04.376Z,47.19
2022-09-06T11:45:47.701Z,46.74
2022-09-06T11:49:03.395Z,47.13
2022-09-06T11:51:40.147Z,47.54
2022-09-06T11:54:25.337Z,47.86
2022-09-06T11:57:00.931Z,47.47
2022-09-06T11:59:40.302Z,47.16
2022-09-06T12:02:33.167Z,47.05
2022-09-06T12:05:27.844Z,47.68
2022-09-06T12:08:32.281Z,47.62
2022-09-06T12:11:22.834Z,47.47
2022-09-06T12:13:58.044Z,47.43
2022-09-06T12:17:07.224Z,46.96
2022-09-06T12:19:49.277Z,46.93
2022-09-06T12:22:56.754Z,46.54
2022-09-06T12:25:57.933Z,46.64
2022-09-06T12:28:36.241Z,46.69
2022-09-06T12:31:35.874Z,46.91
2022-09-06T12:34:13.547Z,46.41
2022-09-06T12:36:57.761Z,46.49
2022-09-06T12:39:29.088Z,46.24
2022-09-06T12:42:02.127Z,46.00
2022-09-06T12:44:36.526Z,46.04
2022-09-06T12:47:11.874Z,46.07
2022-09-06T12:49:42.548Z,45.85
2022-09-06T12:52:15.673Z,45.44
2022-09-06T12:54:49.280Z,45.60
2022-09-06T12:57:24.139Z,45.58
2022-09-06T12:59:57.002Z,45.90
2022-09-06T13:02:41.256Z,46.26
2022-09-06T13:05:15.267Z,46.53
2022-09-06T13:07:51.637Z,46.71
2022-09-06T13:10:25.533Z,46.91
2022-09-06T13:12:58.226Z,47.05
2022-09-06T13:15:31.939Z,47.01
2022-09-06T13:18:23.838Z,47.43
2022-09-06T13:21:05.870Z,47.62
2022-09-06T13:23:45.271Z,47.91
2022-09-06T13:26:16.819Z,48.12
2022-09-06T13:28:47.517Z,48.38
2022-09-06T13:31:23.519Z,48.57
2022-09-06T13:34:00.605Z,48.84
2022-09-06T13:36:32.529Z,49.46
2022-09-06T13:39:03.653Z,50.07
2022-09-06T13:41:42.909Z,50.37
2022-09-06T13:44:31.123Z,50.94
2022-09-06T13:47:02.412Z,51.65
2022-09-06T13:49:34.101Z,52.60
2022-09-06T13:52:06.256Z,53.86
2022-09-06T13:54:37.185Z,56.22
2022-09-06T13:57:09.808Z,58.04
2022-09-06T13:59:42.096Z,59.63
2022-09-06T14:02:17.775Z,60.87
2022-09-06T14:04:48.621Z,62.47
2022-09-06T14:07:19.308Z,63.35
2022-09-06T14:09:51.277Z,64.13
2022-09-06T14:12:20.458Z,64.36
2022-09-06T14:14:51.257Z,64.69
2022-09-06T14:17:22.162Z,65.15
2022-09-06T14:19:52.899Z,65.56
2022-09-06T14:22:23.708Z,65.75
2022-09-06T14:24:55.268Z,66.13
2022-09-06T14:27:26.183Z,66.03
2022-09-06T14:29:56.876Z,66.46
2022-09-06T14:32:27.903Z,66.71
2022-09-06T14:34:58.662Z,67.57
2022-09-06T14:37:29.459Z,67.63
2022-09-06T14:40:00.405Z,67.72
2022-09-06T14:42:31.345Z,67.49
2022-09-06T14:45:02.152Z,68.12
2022-09-06T14:47:33.429Z,67.99
2022-09-06T14:50:04.771Z,68.19
2022-09-06T14:52:35.922Z,67.81
2022-09-06T14:55:07.723Z,67.77
2022-09-06T14:57:38.682Z,67.43
2022-09-06T15:00:12.058Z,67.58
2022-09-06T15:02:44.154Z,67.87
2022-09-06T15:05:15.467Z,67.45
2022-09-06T15:07:46.781Z,67.43
2022-09-06T15:10:19.441Z,67.51
2022-09-06T15:12:50.169Z,67.52
2022-09-06T15:15:21.052Z,67.47
2022-09-06T15:17:51.849Z,67.39
2022-09-06T15:20:22.588Z,67.45
2022-09-06T15:23:15.161Z,67.52
2022-09-06T15:25:50.515Z,67.98
2022-09-06T15:28:22.009Z,68.29
2022-09-06T15:30:52.797Z,68.15
2022-09-06T15:33:23.970Z,68.11
2022-09-06T15:35:58.206Z,68.43
2022-09-06T15:38:29.081Z,68.73
2022-09-06T15:41:08.606Z,68.95
2022-09-06T15:43:42.193Z,69.17
2022-09-06T15:46:12.967Z,69.19
2022-09-06T15:48:46.329Z,69.46
2022-09-06T15:51:20.125Z,69.42
2022-09-06T15:53:50.943Z,69.52
2022-09-06T15:56:21.738Z,69.39
2022-09-06T15:58:52.534Z,69.46
2022-09-06T16:01:25.766Z,69.81
2022-09-06T16:04:03.763Z,69.60
2022-09-06T16:06:33.809Z,69.19
2022-09-06T16:09:07.865Z,69.23
2022-09-06T16:11:39.572Z,69.20
2022-09-06T16:14:13.250Z,69.18
2022-09-06T16:16:44.391Z,69.66
2022-09-06T16:19:15.655Z,69.67
2022-09-06T16:21:46.405Z,69.75
2022-09-06T16:24:18.601Z,69.83
2022-09-06T16:26:49.719Z,69.97
2022-09-06T16:29:21.227Z,70.26
2022-09-06T16:31:59.524Z,70.35
2022-09-06T16:34:30.431Z,70.37
2022-09-06T16:37:04.128Z,70.42
2022-09-06T16:39:34.964Z,70.41
2022-09-06T16:42:06.299Z,70.89
2022-09-06T16:44:37.781Z,70.94
2022-09-06T16:47:08.789Z,70.98
2022-09-06T16:49:39.573Z,70.93
2022-09-06T16:52:10.413Z,70.89
2022-09-06T16:54:41.572Z,70.75
2022-09-06T16:57:12.578Z,70.99
2022-09-06T16:59:43.361Z,71.08
2022-09-06T17:02:14.276Z,71.57
2022-09-06T17:04:45.188Z,71.41
2022-09-06T17:07:16.140Z,71.19
2022-09-06T17:09:47.220Z,71.39
2022-09-06T17:12:18.004Z,71.25
2022-09-06T17:14:48.774Z,71.17
2022-09-06T17:17:19.564Z,71.59
2022-09-06T17:19:50.460Z,71.61
2022-09-06T17:22:21.766Z,71.54
2022-09-06T17:24:52.700Z,71.55
2022-09-06T17:27:24.220Z,71.70
2022-09-06T17:29:55.438Z,71.42
2022-09-06T17:32:27.202Z,71.46
2022-09-06T17:34:58.472Z,71.76
2022-09-06T17:37:29.749Z,71.81
2022-09-06T17:40:01.266Z,71.75
2022-09-06T17:42:32.843Z,72.01
2022-09-06T17:45:04.122Z,71.87
2022-09-06T17:47:35.744Z,71.98
2022-09-06T17:50:08.963Z,72.07
2022-09-06T17:52:39.888Z,72.10
2022-09-06T17:55:11.920Z,71.85
2022-09-06T17:57:42.643Z,71.97
2022-09-06T18:00:16.099Z,71.78
2022-09-06T18:02:46.839Z,71.84
2022-09-06T18:05:18.674Z,71.72
2022-09-06T18:07:49.765Z,71.64
2022-09-06T18:10:21.156Z,71.59
2022-09-06T18:12:52.068Z,71.58
2022-09-06T18:15:22.955Z,71.44
2022-09-06T18:17:53.762Z,71.30
2022-09-06T18:20:25.321Z,71.22
2022-09-06T18:22:56.801Z,71.01
2022-09-06T18:25:28.456Z,70.70
2022-09-06T18:27:59.290Z,70.70
2022-09-06T18:30:30.525Z,70.77
2022-09-06T18:33:02.116Z,70.74
2022-09-06T18:35:34.044Z,70.75
2022-09-06T18:38:05.384Z,70.58
2022-09-06T18:40:42.375Z,70.28
2022-09-06T18:43:13.994Z,70.32
2022-09-06T18:45:48.740Z,70.33
2022-09-06T18:48:20.807Z,70.47
2022-09-06T18:50:54.876Z,70.53
2022-09-06T18:53:28.403Z,70.58
2022-09-06T18:56:02.167Z,70.33
2022-09-06T18:58:34.499Z,70.80
2022-09-06T19:01:14.020Z,70.69
2022-09-06T19:03:46.047Z,70.99
2022-09-06T19:06:20.624Z,70.98
2022-09-06T19:08:54.306Z,71.10
2022-09-06T19:11:26.151Z,71.22
2022-09-06T19:13:58.808Z,71.23
2022-09-06T19:16:31.447Z,71.25
2022-09-06T19:19:07.820Z,71.21
2022-09-06T19:21:42.045Z,71.26
2022-09-06T19:24:15.594Z,71.37
2022-09-06T19:26:47.152Z,71.23
2022-09-06T19:29:19.719Z,71.49
2022-09-06T19:31:50.809Z,71.41
2022-09-06T19:34:22.738Z,71.71
2022-09-06T19:36:55.591Z,71.79
2022-09-06T19:39:34.771Z,71.89
2022-09-06T19:42:09.103Z,71.87
2022-09-06T19:44:39.851Z,72.14
2022-09-06T19:47:10.740Z,72.14
2022-09-06T19:49:41.738Z,72.13
2022-09-06T19:52:12.687Z,72.22
2022-09-06T19:54:43.903Z,72.49
2022-09-06T19:57:15.578Z,72.59
2022-09-06T19:59:46.493Z,72.66
2022-09-06T20:02:17.316Z,72.68
2022-09-06T20:04:48.055Z,72.72
2022-09-06T20:07:18.842Z,72.77
2022-09-06T20:09:52.541Z,72.77
2022-09-06T20:12:24.344Z,72.78
2022-09-06T20:14:55.192Z,72.74
2022-09-06T20:17:34.460Z,72.69
2022-09-06T20:20:06.853Z,72.85
2022-09-06T20:22:36.751Z,72.74
2022-09-06T20:25:09.650Z,72.79
2022-09-06T20:27:44.369Z,72.64
2022-09-06T20:30:16.972Z,72.63
2022-09-06T20:32:47.773Z,72.73
2022-09-06T20:35:19.421Z,72.60
2022-09-06T20:37:50.702Z,72.47
2022-09-06T20:40:21.811Z,72.38
2022-09-06T20:42:53.288Z,72.22
2022-09-06T20:45:25.375Z,72.30
2022-09-06T20:47:56.966Z,72.20
2022-09-06T20:50:27.785Z,72.26
2022-09-06T20:52:58.606Z,72.07
2022-09-06T20:55:29.347Z,72.12
2022-09-06T20:58:00.216Z,71.99
2022-09-06T21:00:31.057Z,71.98
2022-09-06T21:03:01.823Z,71.97
2022-09-06T21:05:32.607Z,72.02
2022-09-06T21:08:03.680Z,72.05
2022-09-06T21:10:34.950Z,72.11
2022-09-06T21:13:05.899Z,72.14
2022-09-06T21:15:37.848Z,72.09
2022-09-06T21:18:09.321Z,72.06
2022-09-06T21:20:40.105Z,72.02
2022-09-06T21:23:10.850Z,72.13
2022-09-06T21:25:41.677Z,72.11
2022-09-06T21:28:12.571Z,72.02
2022-09-06T21:30:43.372Z,72.00
2022-09-06T21:33:14.095Z,71.94
2022-09-06T21:35:44.912Z,71.90
2022-09-06T21:38:16.256Z,72.11
2022-09-06T21:40:47.026Z,72.19
2022-09-06T21:43:17.738Z,72.26
2022-09-06T21:45:48.804Z,72.39
2022-09-06T21:48:19.916Z,72.42
2022-09-06T21:50:51.210Z,72.48
2022-09-06T21:53:23.710Z,72.47
2022-09-06T21:56:00.164Z,72.47
2022-09-06T21:58:31.834Z,72.41
2022-09-06T22:01:04.815Z,72.25
2022-09-06T22:03:39.175Z,72.24
2022-09-06T22:06:15.147Z,72.33
2022-09-06T22:08:47.163Z,72.35
2022-09-06T22:11:19.647Z,72.41
2022-09-06T22:13:51.546Z,72.57
2022-09-06T22:16:24.995Z,72.61
2022-09-06T22:18:56.271Z,72.85
2022-09-06T22:21:27.211Z,72.81
2022-09-06T22:24:00.211Z,72.77
2022-09-06T22:26:32.583Z,72.76
2022-09-06T22:29:05.762Z,72.78
2022-09-06T22:31:37.449Z,72.88
2022-09-06T22:34:08.867Z,73.14
2022-09-06T22:36:40.006Z,73.28
2022-09-06T22:39:11.106Z,73.33
2022-09-06T22:41:42.054Z,73.32
2022-09-06T22:44:13.420Z,73.28
2022-09-06T22:46:44.715Z,73.27
2022-09-06T22:49:16.047Z,73.25
2022-09-06T22:51:46.921Z,73.41
2022-09-06T22:54:17.809Z,73.54
2022-09-06T22:56:48.567Z,73.44
2022-09-06T22:59:19.706Z,73.61
2022-09-06T23:01:52.260Z,73.48
2022-09-06T23:04:23.445Z,73.52
2022-09-06T23:06:54.323Z,73.65
2022-09-06T23:09:25.486Z,73.57
2022-09-06T23:11:56.292Z,73.30
2022-09-06T23:14:28.464Z,73.45
2022-09-06T23:16:57.714Z,73.64
2022-09-06T23:19:28.565Z,73.94
2022-09-06T23:21:59.350Z,73.94
2022-09-06T23:24:30.098Z,74.04
2022-09-06T23:27:02.157Z,74.06
2022-09-06T23:29:33.029Z,74.07
2022-09-06T23:32:04.290Z,73.94
2022-09-06T23:34:35.012Z,73.95
2022-09-06T23:37:07.049Z,73.90
2022-09-06T23:39:37.897Z,73.91
2022-09-06T23:42:09.269Z,73.83
2022-09-06T23:44:39.987Z,73.89
2022-09-06T23:47:10.769Z,73.75
2022-09-06T23:49:41.615Z,73.72
2022-09-06T23:52:12.458Z,73.55
2022-09-06T23:54:43.182Z,73.81
2022-09-06T23:57:13.946Z,73.76
2022-09-06T23:59:44.743Z,73.63
